MQF weather

Magnitogorsk International Airport
Magnitogorsk, Republic of Bashkortostan, Russia

Public forecast

Using degrees Celsius for public forecast. Weather courtesy of forecast.io.

METAR (pilot weather report)

Retrieved 2019/07/21 22:30 UTC (0 seconds ago):

USCM 212230Z 26002MPS 9999 NSC 18/11 Q1012 R36/090065 NOSIG RMK QFE721

TAF (pilot weather forecast)

Closest forecast is Ufa International Airport, 123.4 nm (228.6 km) NW. Retrieved 2019/07/21 21:21 UTC (1 hour ago):

TAF UWUU 211947Z 2121/2221 27003G08MPS 9999 BKN020CB TEMPO 2121/2206 22003G08MPS 3100 -SHRA BR BKN011CB TEMPO 2206/2221 29006G18MPS 3100 -TSRAGR BKN011CB